sensor_id;sensor_type;location;lat;lon;timestamp;P1;durP1;ratioP1;P2;durP2;ratioP2
62121;SDS011;48108;47.532;19.084;2022-10-17T04:02:11;15.85;;;8.98;;
62121;SDS011;48108;47.532;19.084;2022-10-17T04:05:14;16.35;;;9.73;;
62121;SDS011;48108;47.532;19.084;2022-10-17T04:08:17;14.55;;;9.45;;
62121;SDS011;48108;47.532;19.084;2022-10-17T04:11:24;20.27;;;9.95;;
62121;SDS011;48108;47.532;19.084;2022-10-17T04:14:27;15.68;;;9.50;;
62121;SDS011;48108;47.532;19.084;2022-10-17T04:17:30;14.70;;;10.18;;
62121;SDS011;48108;47.532;19.084;2022-10-17T04:20:39;20.95;;;9.63;;
62121;SDS011;48108;47.532;19.084;2022-10-17T04:23:42;17.67;;;10.35;;
62121;SDS011;48108;47.532;19.084;2022-10-17T04:26:48;16.15;;;9.02;;
62121;SDS011;48108;47.532;19.084;2022-10-17T04:29:52;17.50;;;9.02;;
62121;SDS011;48108;47.532;19.084;2022-10-17T04:32:55;13.55;;;8.23;;
62121;SDS011;48108;47.532;19.084;2022-10-17T04:39:01;14.63;;;9.05;;
62121;SDS011;48108;47.532;19.084;2022-10-17T04:42:06;14.75;;;9.18;;
62121;SDS011;48108;47.532;19.084;2022-10-17T04:45:09;18.85;;;8.93;;
62121;SDS011;48108;47.532;19.084;2022-10-17T04:48:12;16.25;;;9.50;;
62121;SDS011;48108;47.532;19.084;2022-10-17T04:51:16;17.58;;;9.38;;
62121;SDS011;48108;47.532;19.084;2022-10-17T04:54:30;15.27;;;9.32;;
62121;SDS011;48108;47.532;19.084;2022-10-17T04:57:33;16.05;;;9.10;;
62121;SDS011;48108;47.532;19.084;2022-10-17T05:00:37;16.30;;;9.50;;
62121;SDS011;48108;47.532;19.084;2022-10-17T05:03:40;17.77;;;10.10;;
62121;SDS011;48108;47.532;19.084;2022-10-17T05:06:43;16.35;;;9.63;;
62121;SDS011;48108;47.532;19.084;2022-10-17T05:09:47;17.00;;;9.30;;
62121;SDS011;48108;47.532;19.084;2022-10-17T05:12:50;16.62;;;9.07;;
62121;SDS011;48108;47.532;19.084;2022-10-17T05:15:53;17.17;;;9.20;;
62121;SDS011;48108;47.532;19.084;2022-10-17T05:19:00;16.60;;;8.50;;
62121;SDS011;48108;47.532;19.084;2022-10-17T05:22:04;17.85;;;9.00;;
62121;SDS011;48108;47.532;19.084;2022-10-17T05:25:08;19.90;;;9.55;;
62121;SDS011;48108;47.532;19.084;2022-10-17T05:28:11;15.35;;;9.27;;
62121;SDS011;48108;47.532;19.084;2022-10-17T05:31:14;19.30;;;9.02;;
62121;SDS011;48108;47.532;19.084;2022-10-17T05:34:16;17.33;;;9.57;;
62121;SDS011;48108;47.532;19.084;2022-10-17T05:37:19;17.02;;;9.25;;
62121;SDS011;48108;47.532;19.084;2022-10-17T05:40:23;17.12;;;9.48;;
62121;SDS011;48108;47.532;19.084;2022-10-17T05:43:26;16.48;;;9.60;;
62121;SDS011;48108;47.532;19.084;2022-10-17T05:46:29;22.67;;;9.68;;
62121;SDS011;48108;47.532;19.084;2022-10-17T05:49:33;18.27;;;9.55;;
62121;SDS011;48108;47.532;19.084;2022-10-17T05:52:51;17.62;;;10.00;;
62121;SDS011;48108;47.532;19.084;2022-10-17T05:55:56;14.32;;;9.27;;
62121;SDS011;48108;47.532;19.084;2022-10-17T05:59:00;16.92;;;10.00;;
62121;SDS011;48108;47.532;19.084;2022-10-17T06:02:03;14.87;;;9.02;;
62121;SDS011;48108;47.532;19.084;2022-10-17T06:05:06;18.92;;;9.75;;
62121;SDS011;48108;47.532;19.084;2022-10-17T06:08:09;14.57;;;9.65;;
62121;SDS011;48108;47.532;19.084;2022-10-17T06:11:12;16.12;;;9.40;;
62121;SDS011;48108;47.532;19.084;2022-10-17T06:14:15;19.05;;;9.23;;
62121;SDS011;48108;47.532;19.084;2022-10-17T06:17:18;20.48;;;10.32;;
62121;SDS011;48108;47.532;19.084;2022-10-17T06:20:20;17.17;;;9.13;;
62121;SDS011;48108;47.532;19.084;2022-10-17T06:23:24;20.80;;;10.23;;
62121;SDS011;48108;47.532;19.084;2022-10-17T06:26:27;20.23;;;10.25;;
62121;SDS011;48108;47.532;19.084;2022-10-17T06:29:33;16.52;;;9.82;;
62121;SDS011;48108;47.532;19.084;2022-10-17T06:32:36;15.98;;;9.40;;
62121;SDS011;48108;47.532;19.084;2022-10-17T06:35:39;13.82;;;9.10;;
62121;SDS011;48108;47.532;19.084;2022-10-17T06:38:42;16.83;;;10.20;;
62121;SDS011;48108;47.532;19.084;2022-10-17T06:41:46;15.98;;;9.57;;
62121;SDS011;48108;47.532;19.084;2022-10-17T06:44:51;14.52;;;10.05;;
62121;SDS011;48108;47.532;19.084;2022-10-17T06:47:54;22.67;;;9.27;;
62121;SDS011;48108;47.532;19.084;2022-10-17T06:50:59;20.12;;;10.32;;
62121;SDS011;48108;47.532;19.084;2022-10-17T06:54:02;19.87;;;10.00;;
62121;SDS011;48108;47.532;19.084;2022-10-17T06:57:05;15.95;;;10.50;;
62121;SDS011;48108;47.532;19.084;2022-10-17T07:00:09;19.23;;;10.60;;
62121;SDS011;48108;47.532;19.084;2022-10-17T07:03:13;16.75;;;10.20;;
62121;SDS011;48108;47.532;19.084;2022-10-17T07:06:16;15.50;;;9.93;;
62121;SDS011;48108;47.532;19.084;2022-10-17T07:09:19;19.30;;;10.60;;
62121;SDS011;48108;47.532;19.084;2022-10-17T07:12:22;18.98;;;10.52;;
62121;SDS011;48108;47.532;19.084;2022-10-17T07:15:25;17.37;;;10.55;;
62121;SDS011;48108;47.532;19.084;2022-10-17T07:18:30;20.62;;;10.65;;
62121;SDS011;48108;47.532;19.084;2022-10-17T07:21:32;18.23;;;11.00;;
62121;SDS011;48108;47.532;19.084;2022-10-17T07:24:40;20.58;;;10.85;;
62121;SDS011;48108;47.532;19.084;2022-10-17T07:27:47;16.75;;;10.40;;
62121;SDS011;48108;47.532;19.084;2022-10-17T07:30:51;16.52;;;9.90;;
62121;SDS011;48108;47.532;19.084;2022-10-17T07:33:55;18.87;;;10.50;;
62121;SDS011;48108;47.532;19.084;2022-10-17T07:37:01;18.55;;;10.20;;
62121;SDS011;48108;47.532;19.084;2022-10-17T07:40:05;16.80;;;10.50;;
62121;SDS011;48108;47.532;19.084;2022-10-17T07:43:11;19.40;;;9.80;;
62121;SDS011;48108;47.532;19.084;2022-10-17T07:46:13;17.42;;;9.43;;
62121;SDS011;48108;47.532;19.084;2022-10-17T07:49:17;15.13;;;9.82;;
62121;SDS011;48108;47.532;19.084;2022-10-17T07:52:20;15.88;;;9.82;;
62121;SDS011;48108;47.532;19.084;2022-10-17T07:55:23;16.85;;;10.07;;
62121;SDS011;48108;47.532;19.084;2022-10-17T07:58:26;16.85;;;10.25;;
62121;SDS011;48108;47.532;19.084;2022-10-17T08:01:30;16.25;;;10.07;;
62121;SDS011;48108;47.532;19.084;2022-10-17T08:04:32;19.77;;;10.45;;
62121;SDS011;48108;47.532;19.084;2022-10-17T08:07:35;18.00;;;9.85;;
62121;SDS011;48108;47.532;19.084;2022-10-17T08:10:38;15.80;;;10.00;;
62121;SDS011;48108;47.532;19.084;2022-10-17T08:13:41;18.60;;;10.70;;
62121;SDS011;48108;47.532;19.084;2022-10-17T08:16:44;14.07;;;9.32;;
62121;SDS011;48108;47.532;19.084;2022-10-17T08:19:47;18.30;;;10.32;;
62121;SDS011;48108;47.532;19.084;2022-10-17T08:23:02;16.70;;;10.20;;
62121;SDS011;48108;47.532;19.084;2022-10-17T08:26:05;17.70;;;10.90;;
62121;SDS011;48108;47.532;19.084;2022-10-17T08:32:19;18.05;;;10.00;;
62121;SDS011;48108;47.532;19.084;2022-10-17T08:35:27;19.85;;;10.38;;
62121;SDS011;48108;47.532;19.084;2022-10-17T08:38:30;15.88;;;10.15;;
62121;SDS011;48108;47.532;19.084;2022-10-17T08:41:50;19.00;;;9.73;;
62121;SDS011;48108;47.532;19.084;2022-10-17T08:48:44;17.60;;;9.70;;
62121;SDS011;48108;47.532;19.084;2022-10-17T08:51:50;16.20;;;9.77;;
62121;SDS011;48108;47.532;19.084;2022-10-17T08:54:59;16.67;;;10.48;;
62121;SDS011;48108;47.532;19.084;2022-10-17T08:58:02;20.27;;;9.88;;
62121;SDS011;48108;47.532;19.084;2022-10-17T09:01:19;14.52;;;9.30;;
62121;SDS011;48108;47.532;19.084;2022-10-17T09:14:51;13.82;;;9.18;;
62121;SDS011;48108;47.532;19.084;2022-10-17T09:18:12;14.65;;;9.40;;
62121;SDS011;48108;47.532;19.084;2022-10-17T09:21:43;19.10;;;9.70;;
62121;SDS011;48108;47.532;19.084;2022-10-17T09:25:01;12.48;;;8.63;;
62121;SDS011;48108;47.532;19.084;2022-10-17T09:31:11;12.60;;;8.43;;
62121;SDS011;48108;47.532;19.084;2022-10-17T09:34:21;20.02;;;9.38;;
62121;SDS011;48108;47.532;19.084;2022-10-17T09:37:30;15.93;;;8.50;;
62121;SDS011;48108;47.532;19.084;2022-10-17T09:40:34;13.88;;;8.38;;
62121;SDS011;48108;47.532;19.084;2022-10-17T09:43:38;15.23;;;8.77;;
62121;SDS011;48108;47.532;19.084;2022-10-17T09:50:07;14.45;;;7.87;;
62121;SDS011;48108;47.532;19.084;2022-10-17T09:53:36;12.52;;;7.80;;
62121;SDS011;48108;47.532;19.084;2022-10-17T10:00:34;12.65;;;7.45;;
62121;SDS011;48108;47.532;19.084;2022-10-17T10:03:39;8.57;;;6.12;;
62121;SDS011;48108;47.532;19.084;2022-10-17T10:07:02;13.85;;;4.90;;
62121;SDS011;48108;47.532;19.084;2022-10-17T10:10:21;8.05;;;4.68;;
62121;SDS011;48108;47.532;19.084;2022-10-17T10:13:29;9.70;;;5.25;;
62121;SDS011;48108;47.532;19.084;2022-10-17T10:16:35;7.18;;;4.65;;
62121;SDS011;48108;47.532;19.084;2022-10-17T10:19:48;7.50;;;5.20;;
62121;SDS011;48108;47.532;19.084;2022-10-17T10:23:05;8.00;;;4.75;;
62121;SDS011;48108;47.532;19.084;2022-10-17T10:26:22;8.82;;;4.78;;
62121;SDS011;48108;47.532;19.084;2022-10-17T10:29:31;7.82;;;4.37;;
62121;SDS011;48108;47.532;19.084;2022-10-17T10:32:35;7.60;;;4.18;;
62121;SDS011;48108;47.532;19.084;2022-10-17T10:35:39;6.05;;;4.32;;
62121;SDS011;48108;47.532;19.084;2022-10-17T10:38:49;6.72;;;4.60;;
62121;SDS011;48108;47.532;19.084;2022-10-17T10:41:55;5.85;;;3.75;;
62121;SDS011;48108;47.532;19.084;2022-10-17T10:45:00;9.10;;;4.40;;
62121;SDS011;48108;47.532;19.084;2022-10-17T10:48:34;14.15;;;4.70;;
62121;SDS011;48108;47.532;19.084;2022-10-17T10:51:41;8.18;;;4.45;;
62121;SDS011;48108;47.532;19.084;2022-10-17T10:54:54;6.97;;;4.50;;
62121;SDS011;48108;47.532;19.084;2022-10-17T10:58:08;5.97;;;4.30;;
62121;SDS011;48108;47.532;19.084;2022-10-17T11:01:44;8.05;;;4.20;;
62121;SDS011;48108;47.532;19.084;2022-10-17T11:04:54;5.45;;;4.37;;
62121;SDS011;48108;47.532;19.084;2022-10-17T11:08:17;8.40;;;4.28;;
62121;SDS011;48108;47.532;19.084;2022-10-17T11:11:29;5.93;;;3.97;;
62121;SDS011;48108;47.532;19.084;2022-10-17T11:18:03;4.47;;;3.78;;
62121;SDS011;48108;47.532;19.084;2022-10-17T11:21:15;9.15;;;4.00;;
62121;SDS011;48108;47.532;19.084;2022-10-17T11:28:01;6.75;;;3.83;;
62121;SDS011;48108;47.532;19.084;2022-10-17T11:31:08;7.45;;;4.30;;
62121;SDS011;48108;47.532;19.084;2022-10-17T11:34:15;9.90;;;4.00;;
62121;SDS011;48108;47.532;19.084;2022-10-17T11:37:24;5.93;;;4.32;;
62121;SDS011;48108;47.532;19.084;2022-10-17T11:40:32;5.53;;;3.72;;
62121;SDS011;48108;47.532;19.084;2022-10-17T11:43:43;9.27;;;4.10;;
62121;SDS011;48108;47.532;19.084;2022-10-17T11:46:59;7.43;;;3.80;;
62121;SDS011;48108;47.532;19.084;2022-10-17T11:50:26;6.12;;;3.78;;
62121;SDS011;48108;47.532;19.084;2022-10-17T11:53:56;6.97;;;3.87;;
62121;SDS011;48108;47.532;19.084;2022-10-17T12:07:35;5.07;;;3.37;;
62121;SDS011;48108;47.532;19.084;2022-10-17T12:10:53;6.95;;;3.50;;
62121;SDS011;48108;47.532;19.084;2022-10-17T12:14:09;5.37;;;3.12;;
62121;SDS011;48108;47.532;19.084;2022-10-17T12:17:44;6.07;;;4.07;;
62121;SDS011;48108;47.532;19.084;2022-10-17T12:20:57;3.97;;;3.28;;
62121;SDS011;48108;47.532;19.084;2022-10-17T12:24:01;3.85;;;3.15;;
62121;SDS011;48108;47.532;19.084;2022-10-17T12:33:56;5.35;;;2.87;;
62121;SDS011;48108;47.532;19.084;2022-10-17T12:37:01;6.03;;;2.87;;
62121;SDS011;48108;47.532;19.084;2022-10-17T12:40:36;3.53;;;2.95;;
62121;SDS011;48108;47.532;19.084;2022-10-17T12:43:38;3.85;;;3.08;;
62121;SDS011;48108;47.532;19.084;2022-10-17T12:46:49;6.75;;;3.30;;
62121;SDS011;48108;47.532;19.084;2022-10-17T12:49:53;4.22;;;3.10;;
62121;SDS011;48108;47.532;19.084;2022-10-17T12:53:00;6.22;;;3.47;;
62121;SDS011;48108;47.532;19.084;2022-10-17T12:56:07;7.78;;;3.50;;
62121;SDS011;48108;47.532;19.084;2022-10-17T12:59:15;6.50;;;3.35;;
62121;SDS011;48108;47.532;19.084;2022-10-17T13:02:24;7.35;;;2.90;;
62121;SDS011;48108;47.532;19.084;2022-10-17T13:05:30;5.82;;;3.83;;
62121;SDS011;48108;47.532;19.084;2022-10-17T13:08:37;4.93;;;3.33;;
62121;SDS011;48108;47.532;19.084;2022-10-17T13:11:44;4.28;;;3.22;;
62121;SDS011;48108;47.532;19.084;2022-10-17T13:14:47;5.43;;;3.25;;
62121;SDS011;48108;47.532;19.084;2022-10-17T13:17:56;4.40;;;3.28;;
62121;SDS011;48108;47.532;19.084;2022-10-17T13:21:02;5.53;;;3.37;;
62121;SDS011;48108;47.532;19.084;2022-10-17T13:27:43;6.65;;;3.45;;
62121;SDS011;48108;47.532;19.084;2022-10-17T13:30:46;4.30;;;3.22;;
62121;SDS011;48108;47.532;19.084;2022-10-17T13:33:54;3.28;;;2.97;;
62121;SDS011;48108;47.532;19.084;2022-10-17T13:37:05;3.53;;;3.12;;
62121;SDS011;48108;47.532;19.084;2022-10-17T13:40:16;3.28;;;2.83;;
62121;SDS011;48108;47.532;19.084;2022-10-17T13:43:40;6.22;;;3.10;;
62121;SDS011;48108;47.532;19.084;2022-10-17T13:46:43;4.30;;;2.97;;
62121;SDS011;48108;47.532;19.084;2022-10-17T13:49:46;7.30;;;3.17;;
62121;SDS011;48108;47.532;19.084;2022-10-17T13:56:22;3.78;;;2.75;;
62121;SDS011;48108;47.532;19.084;2022-10-17T13:59:38;4.47;;;2.90;;
62121;SDS011;48108;47.532;19.084;2022-10-17T14:02:42;4.57;;;3.20;;
62121;SDS011;48108;47.532;19.084;2022-10-17T14:09:28;7.10;;;3.28;;
62121;SDS011;48108;47.532;19.084;2022-10-17T14:12:32;3.90;;;2.95;;
62121;SDS011;48108;47.532;19.084;2022-10-17T14:15:35;7.28;;;3.12;;
62121;SDS011;48108;47.532;19.084;2022-10-17T14:18:38;3.97;;;3.22;;
62121;SDS011;48108;47.532;19.084;2022-10-17T14:21:41;6.43;;;3.72;;
62121;SDS011;48108;47.532;19.084;2022-10-17T14:24:50;8.60;;;3.45;;
62121;SDS011;48108;47.532;19.084;2022-10-17T14:27:56;7.20;;;3.28;;
62121;SDS011;48108;47.532;19.084;2022-10-17T14:31:15;4.95;;;3.05;;
62121;SDS011;48108;47.532;19.084;2022-10-17T14:34:23;8.40;;;3.20;;
62121;SDS011;48108;47.532;19.084;2022-10-17T14:37:44;5.43;;;3.50;;
62121;SDS011;48108;47.532;19.084;2022-10-17T14:40:50;6.03;;;3.37;;
62121;SDS011;48108;47.532;19.084;2022-10-17T14:47:26;6.25;;;3.70;;
62121;SDS011;48108;47.532;19.084;2022-10-17T14:51:04;5.35;;;3.20;;
62121;SDS011;48108;47.532;19.084;2022-10-17T15:00:28;7.93;;;3.50;;
62121;SDS011;48108;47.532;19.084;2022-10-17T15:03:30;6.18;;;3.70;;
62121;SDS011;48108;47.532;19.084;2022-10-17T15:06:33;7.07;;;3.30;;
62121;SDS011;48108;47.532;19.084;2022-10-17T15:09:36;4.62;;;3.58;;
62121;SDS011;48108;47.532;19.084;2022-10-17T15:12:39;5.10;;;3.87;;
62121;SDS011;48108;47.532;19.084;2022-10-17T15:16:00;7.78;;;3.65;;
62121;SDS011;48108;47.532;19.084;2022-10-17T15:19:03;8.98;;;3.87;;
62121;SDS011;48108;47.532;19.084;2022-10-17T15:22:05;7.55;;;3.65;;
62121;SDS011;48108;47.532;19.084;2022-10-17T15:25:08;13.80;;;4.07;;
62121;SDS011;48108;47.532;19.084;2022-10-17T15:28:12;7.68;;;3.65;;
62121;SDS011;48108;47.532;19.084;2022-10-17T15:31:16;5.03;;;3.92;;
62121;SDS011;48108;47.532;19.084;2022-10-17T15:34:22;6.30;;;3.62;;
62121;SDS011;48108;47.532;19.084;2022-10-17T15:37:24;8.75;;;3.65;;
62121;SDS011;48108;47.532;19.084;2022-10-17T15:40:28;7.85;;;3.70;;
62121;SDS011;48108;47.532;19.084;2022-10-17T15:43:30;4.62;;;3.12;;
62121;SDS011;48108;47.532;19.084;2022-10-17T15:46:33;6.10;;;4.03;;
62121;SDS011;48108;47.532;19.084;2022-10-17T15:49:37;9.07;;;3.83;;
62121;SDS011;48108;47.532;19.084;2022-10-17T15:52:40;7.97;;;3.67;;
62121;SDS011;48108;47.532;19.084;2022-10-17T15:55:43;6.30;;;4.18;;
62121;SDS011;48108;47.532;19.084;2022-10-17T15:58:46;8.07;;;4.05;;
